Careywood, Idaho
Current Conditions -  °F | °C
As of 12:55 PM on Tuesday 21 Oct 2014 (Local Time) from KCOE Reporting Station
Overcast Overcast  
Wind Chill: 54°   Ceiling: 3400
Heat Index: 54°   Visibility: 10mi
Dew Point: 43°   Wind: 0mph
Humidity: 67%   Direction: NA
Pressure: 29.92"   Gusts: NA
Location:  48.03°N, 116.65°W
Report Text: KCOE 211955Z AUTO 00000KT 10SM FEW030 BKN034 OVC045 12/06 A2992 RMK AO1
Loading
Personal Weather Stations






























Interactive Weather Map
Tropical Storm Tracking
New forecast layout! Learn more

10-Day Weather Forecast

Advertisements
Track Severe Weather on mobile